createdAt,value
2022-12-23T00:01:28.436Z,9.50
2022-12-23T00:03:59.909Z,9.50
2022-12-23T00:06:27.559Z,9.40
2022-12-23T00:08:58.889Z,9.70
2022-12-23T00:11:27.446Z,9.70
2022-12-23T00:14:20.387Z,9.70
2022-12-23T00:16:48.747Z,9.60
2022-12-23T00:19:15.754Z,9.70
2022-12-23T00:21:42.527Z,9.70
2022-12-23T00:24:09.768Z,9.70
2022-12-23T00:26:36.532Z,9.40
2022-12-23T00:29:03.634Z,9.80
2022-12-23T00:31:30.449Z,9.80
2022-12-23T00:33:57.759Z,9.70
2022-12-23T00:36:28.528Z,9.70
2022-12-23T00:39:15.833Z,9.70
2022-12-23T00:42:02.070Z,9.80
2022-12-23T00:44:29.684Z,9.80
2022-12-23T00:46:56.438Z,9.80
2022-12-23T00:49:41.796Z,9.70
2022-12-23T00:52:11.538Z,9.70
2022-12-23T00:54:38.822Z,9.80
2022-12-23T00:57:06.087Z,9.60
2022-12-23T00:59:34.079Z,9.60
2022-12-23T01:02:20.403Z,9.70
2022-12-23T01:05:06.083Z,9.90
2022-12-23T01:07:33.426Z,9.80
2022-12-23T01:10:00.251Z,9.70
2022-12-23T01:12:27.385Z,9.70
2022-12-23T01:15:01.665Z,9.40
2022-12-23T01:17:28.534Z,9.80
2022-12-23T01:19:55.362Z,9.70
2022-12-23T01:22:22.149Z,9.60
2022-12-23T01:24:49.168Z,9.80
2022-12-23T01:27:16.098Z,9.80
2022-12-23T01:29:43.205Z,9.70
2022-12-23T01:32:13.300Z,9.70
2022-12-23T01:34:40.213Z,9.80
2022-12-23T01:37:07.075Z,9.60
2022-12-23T01:39:34.155Z,9.80
2022-12-23T01:42:21.046Z,9.70
2022-12-23T01:45:09.565Z,9.80
2022-12-23T01:47:40.943Z,9.70
2022-12-23T01:50:19.731Z,9.60
2022-12-23T01:53:11.476Z,9.70
2022-12-23T01:56:06.773Z,9.70
2022-12-23T01:58:36.909Z,9.80
2022-12-23T02:01:23.500Z,9.80
2022-12-23T02:03:53.443Z,9.80
2022-12-23T02:06:43.204Z,9.80
2022-12-23T02:09:19.472Z,9.70
2022-12-23T02:12:14.354Z,9.70
2022-12-23T02:15:30.974Z,9.70
2022-12-23T02:18:35.084Z,9.70
2022-12-23T02:21:31.688Z,9.90
2022-12-23T02:24:35.790Z,9.80
2022-12-23T02:27:05.443Z,9.80
2022-12-23T02:29:32.389Z,9.70
2022-12-23T02:32:15.720Z,9.70
2022-12-23T02:34:58.740Z,9.80
2022-12-23T02:37:37.049Z,9.50
2022-12-23T02:40:25.951Z,9.50
2022-12-23T02:43:00.645Z,9.80
2022-12-23T02:45:46.695Z,9.70
2022-12-23T02:48:29.391Z,9.80
2022-12-23T02:50:58.393Z,9.50
2022-12-23T02:53:33.786Z,9.40
2022-12-23T02:56:02.281Z,9.70
2022-12-23T02:58:36.258Z,9.50
2022-12-23T03:01:05.301Z,9.70
2022-12-23T03:03:32.641Z,9.70
2022-12-23T03:05:59.536Z,9.50
2022-12-23T03:08:31.491Z,9.70
2022-12-23T03:11:11.584Z,9.70
2022-12-23T03:14:00.593Z,9.80
2022-12-23T03:16:37.642Z,9.60
2022-12-23T03:19:23.027Z,9.30
2022-12-23T03:22:04.896Z,9.80
2022-12-23T03:24:43.755Z,9.80
2022-12-23T03:27:18.879Z,9.80
2022-12-23T03:29:52.047Z,9.70
2022-12-23T03:32:22.988Z,9.80
2022-12-23T03:34:54.457Z,10.00
2022-12-23T03:37:24.458Z,9.90
2022-12-23T03:40:18.844Z,10.10
2022-12-23T03:42:50.697Z,9.80
2022-12-23T03:45:41.395Z,10.10
2022-12-23T03:48:24.010Z,10.10
2022-12-23T03:50:56.688Z,9.90
2022-12-23T03:53:32.052Z,10.00
2022-12-23T03:56:06.256Z,10.10
2022-12-23T03:58:39.654Z,10.10
2022-12-23T04:01:25.827Z,10.10
2022-12-23T04:04:05.290Z,10.10
2022-12-23T04:06:58.853Z,10.10
2022-12-23T04:09:28.591Z,10.30
2022-12-23T04:11:56.626Z,10.10
2022-12-23T04:14:23.678Z,10.20
2022-12-23T04:16:55.593Z,10.20
2022-12-23T04:19:22.705Z,10.10
2022-12-23T04:21:49.842Z,10.20
2022-12-23T04:24:16.675Z,10.20
2022-12-23T04:26:43.612Z,10.20
2022-12-23T04:29:10.512Z,10.20
2022-12-23T04:31:37.895Z,10.20
2022-12-23T04:34:05.090Z,10.20
2022-12-23T04:36:31.910Z,10.10
2022-12-23T04:38:58.862Z,10.10
2022-12-23T04:41:26.108Z,10.10
2022-12-23T04:43:53.687Z,10.00
2022-12-23T04:46:20.787Z,10.20
2022-12-23T04:48:47.861Z,10.10
2022-12-23T04:51:14.651Z,9.70
2022-12-23T04:53:41.433Z,9.90
2022-12-23T04:56:08.286Z,9.80
2022-12-23T04:58:35.360Z,10.10
2022-12-23T05:01:12.141Z,9.80
2022-12-23T05:03:40.189Z,9.80
2022-12-23T05:06:10.393Z,9.60
2022-12-23T05:08:37.623Z,9.70
2022-12-23T05:11:04.739Z,9.70
2022-12-23T05:13:33.505Z,9.60
2022-12-23T05:16:00.388Z,9.60
2022-12-23T05:18:27.194Z,9.80
2022-12-23T05:20:53.979Z,9.60
2022-12-23T05:23:20.748Z,9.60
2022-12-23T05:26:05.986Z,9.80
2022-12-23T05:28:32.770Z,9.70
2022-12-23T05:31:05.119Z,9.70
2022-12-23T05:33:32.829Z,9.80
2022-12-23T05:36:00.530Z,9.60
2022-12-23T05:38:27.656Z,9.70
2022-12-23T05:40:54.725Z,9.70
2022-12-23T05:43:22.077Z,9.80
2022-12-23T05:45:50.108Z,9.90
2022-12-23T05:48:17.089Z,9.70
2022-12-23T05:50:43.941Z,9.80
2022-12-23T05:53:10.748Z,9.70
2022-12-23T05:55:37.545Z,9.80
2022-12-23T05:58:05.213Z,9.70
2022-12-23T06:00:32.229Z,9.80
2022-12-23T06:03:02.316Z,9.70
2022-12-23T06:05:29.972Z,9.70
2022-12-23T06:07:56.776Z,9.80
2022-12-23T06:10:23.688Z,9.70
2022-12-23T06:12:50.698Z,9.80
2022-12-23T06:15:17.917Z,9.80
2022-12-23T06:17:45.182Z,9.80
2022-12-23T06:20:19.992Z,9.80
2022-12-23T06:22:47.825Z,9.60
2022-12-23T06:25:14.656Z,9.70
2022-12-23T06:27:42.105Z,9.60
2022-12-23T06:30:10.128Z,9.60
2022-12-23T06:32:38.860Z,9.80
2022-12-23T06:35:07.255Z,9.80
2022-12-23T06:37:34.165Z,9.70
2022-12-23T06:40:01.102Z,9.80
2022-12-23T06:42:28.329Z,9.70
2022-12-23T06:44:55.323Z,9.90
2022-12-23T06:47:22.355Z,9.80
2022-12-23T06:49:49.137Z,9.70
2022-12-23T06:52:15.927Z,9.80
2022-12-23T06:54:42.757Z,9.80
2022-12-23T06:57:09.699Z,9.70
2022-12-23T06:59:36.558Z,10.00
2022-12-23T07:02:04.049Z,9.90
2022-12-23T07:04:31.120Z,9.80
2022-12-23T07:06:58.736Z,10.00
2022-12-23T07:09:26.163Z,9.80
2022-12-23T07:11:55.989Z,9.90
2022-12-23T07:14:22.836Z,9.80
2022-12-23T07:16:49.738Z,10.00
2022-12-23T07:19:16.740Z,9.60
2022-12-23T07:21:44.230Z,9.90
2022-12-23T07:24:11.082Z,10.20
2022-12-23T07:26:37.853Z,10.20
2022-12-23T07:29:05.089Z,10.80
2022-12-23T07:31:31.882Z,10.80
2022-12-23T07:33:59.298Z,10.90
2022-12-23T07:36:26.622Z,11.20
2022-12-23T07:38:53.447Z,11.20
2022-12-23T07:41:20.650Z,11.30
2022-12-23T07:43:50.358Z,11.50
2022-12-23T07:46:17.248Z,11.30
2022-12-23T07:48:44.458Z,11.30
2022-12-23T07:51:11.397Z,11.40
2022-12-23T07:53:38.507Z,11.50
2022-12-23T07:56:05.940Z,11.30
2022-12-23T07:58:32.702Z,11.70
2022-12-23T08:01:01.290Z,11.60
2022-12-23T08:03:29.120Z,11.50
2022-12-23T08:06:08.346Z,11.50
2022-12-23T08:08:35.928Z,11.20
2022-12-23T08:11:05.280Z,11.30
2022-12-23T08:13:35.082Z,11.20
2022-12-23T08:16:04.119Z,10.80
2022-12-23T08:18:34.026Z,11.20
2022-12-23T08:21:03.825Z,11.10
2022-12-23T08:23:31.737Z,11.10
2022-12-23T08:26:10.796Z,10.90
2022-12-23T08:28:38.685Z,10.70
2022-12-23T08:31:08.699Z,10.70
2022-12-23T08:33:38.250Z,10.60
2022-12-23T08:36:06.745Z,10.70
2022-12-23T08:38:34.737Z,10.70
2022-12-23T08:41:01.855Z,10.60
2022-12-23T08:43:35.471Z,10.60
2022-12-23T08:46:03.300Z,10.70
2022-12-23T08:48:30.529Z,10.50
2022-12-23T08:50:57.432Z,10.60
2022-12-23T08:53:24.172Z,10.60
2022-12-23T08:55:50.924Z,10.40
2022-12-23T08:58:17.677Z,10.70
2022-12-23T09:00:44.479Z,10.60
2022-12-23T09:03:12.877Z,10.40
2022-12-23T09:05:42.164Z,10.60
2022-12-23T09:08:09.710Z,11.00
2022-12-23T09:10:43.913Z,10.60
2022-12-23T09:13:16.259Z,10.60
2022-12-23T09:15:47.263Z,10.70
2022-12-23T09:18:14.776Z,10.60
2022-12-23T09:20:41.951Z,10.60
2022-12-23T09:23:08.859Z,10.70
2022-12-23T09:25:37.203Z,11.10
2022-12-23T09:28:04.807Z,10.60
2022-12-23T09:30:31.652Z,10.70
2022-12-23T09:33:01.442Z,11.10
2022-12-23T09:35:28.197Z,11.10
2022-12-23T09:37:55.967Z,11.10
2022-12-23T09:40:23.706Z,11.20
2022-12-23T09:43:07.491Z,10.80
2022-12-23T09:45:53.622Z,10.90
2022-12-23T09:48:32.751Z,10.90
2022-12-23T09:51:00.534Z,11.10
2022-12-23T09:53:52.478Z,11.00
2022-12-23T09:56:42.064Z,11.00
2022-12-23T09:59:14.988Z,11.20
2022-12-23T10:01:51.018Z,11.00
2022-12-23T10:04:32.704Z,11.20
2022-12-23T10:07:05.804Z,11.40
2022-12-23T10:09:37.733Z,11.10
2022-12-23T10:12:39.780Z,11.40
2022-12-23T10:15:23.621Z,11.50
2022-12-23T10:17:55.476Z,11.30
2022-12-23T10:20:51.119Z,11.10
2022-12-23T10:23:27.957Z,11.40
2022-12-23T10:25:54.938Z,11.10
2022-12-23T10:28:22.988Z,11.20
2022-12-23T10:31:38.502Z,11.00
2022-12-23T10:34:05.330Z,11.00
2022-12-23T10:36:42.383Z,11.00
2022-12-23T10:39:22.986Z,11.10
2022-12-23T10:42:06.945Z,11.00
2022-12-23T10:44:47.500Z,11.10
2022-12-23T10:47:31.342Z,10.90
2022-12-23T10:50:30.837Z,11.00
2022-12-23T10:53:00.588Z,11.00
2022-12-23T10:55:34.075Z,11.00
2022-12-23T10:58:14.525Z,11.10
2022-12-23T11:00:45.753Z,11.20
2022-12-23T11:03:23.541Z,11.20
2022-12-23T11:06:01.061Z,11.10
2022-12-23T11:08:31.919Z,10.90
2022-12-23T11:11:01.327Z,11.00
2022-12-23T11:13:36.759Z,11.10
2022-12-23T11:16:17.524Z,11.30
2022-12-23T11:19:01.710Z,10.90
2022-12-23T11:21:30.445Z,11.00
2022-12-23T11:24:15.336Z,11.20
2022-12-23T11:26:43.534Z,11.10
2022-12-23T11:29:17.719Z,11.20
2022-12-23T11:31:44.911Z,11.50
2022-12-23T11:34:18.651Z,11.50
2022-12-23T11:36:56.505Z,11.10
2022-12-23T11:39:33.909Z,11.10
2022-12-23T11:42:06.200Z,11.10
2022-12-23T11:44:44.626Z,11.50
2022-12-23T11:47:23.234Z,11.60
2022-12-23T11:49:53.716Z,11.50
2022-12-23T11:52:25.891Z,11.20
2022-12-23T11:54:55.788Z,11.50
2022-12-23T11:57:31.852Z,11.10
2022-12-23T12:00:03.180Z,11.20
2022-12-23T12:02:39.802Z,11.10
2022-12-23T12:05:29.060Z,11.50
2022-12-23T12:08:00.901Z,11.40
2022-12-23T12:10:34.629Z,11.50
2022-12-23T12:13:04.977Z,11.10
2022-12-23T12:15:46.701Z,11.50
2022-12-23T12:18:17.170Z,11.60
2022-12-23T12:20:46.578Z,11.50
2022-12-23T12:23:24.068Z,11.10
2022-12-23T12:26:02.784Z,11.30
2022-12-23T12:28:47.186Z,11.40
2022-12-23T12:31:38.413Z,11.20
2022-12-23T12:34:42.413Z,11.10
2022-12-23T12:37:12.736Z,11.10
2022-12-23T12:39:47.088Z,11.50
2022-12-23T12:42:40.989Z,11.20
2022-12-23T12:45:17.810Z,11.10
2022-12-23T12:48:21.272Z,11.20
2022-12-23T12:51:05.707Z,11.10
2022-12-23T12:53:33.796Z,11.20
2022-12-23T12:56:08.237Z,11.60
2022-12-23T12:58:35.462Z,11.60
2022-12-23T13:01:24.511Z,11.30
2022-12-23T13:04:21.376Z,11.20
2022-12-23T13:06:54.655Z,11.50
2022-12-23T13:10:18.743Z,11.60
2022-12-23T13:13:10.482Z,11.50
2022-12-23T13:16:09.482Z,11.50
2022-12-23T13:18:49.695Z,11.40
2022-12-23T13:21:42.518Z,11.50
2022-12-23T13:24:17.524Z,11.40
2022-12-23T13:27:04.391Z,11.50
2022-12-23T13:30:02.477Z,11.40
2022-12-23T13:32:45.985Z,11.40
2022-12-23T13:38:57.867Z,11.30
2022-12-23T13:41:24.601Z,11.70
2022-12-23T13:43:59.684Z,11.40
2022-12-23T13:47:04.381Z,11.50
2022-12-23T13:49:51.425Z,11.30
2022-12-23T13:52:33.261Z,11.60
2022-12-23T13:55:34.283Z,11.50
2022-12-23T13:58:04.172Z,11.50
2022-12-23T14:00:35.126Z,11.70
2022-12-23T14:03:02.066Z,11.70
2022-12-23T14:05:34.962Z,11.60
2022-12-23T14:08:18.680Z,11.70
2022-12-23T14:10:56.797Z,11.70
2022-12-23T14:13:42.186Z,11.60
2022-12-23T14:16:18.100Z,11.50
2022-12-23T14:19:06.721Z,11.60
2022-12-23T14:21:50.141Z,11.60
2022-12-23T14:24:51.309Z,11.70
2022-12-23T14:27:55.137Z,11.50
2022-12-23T14:30:35.899Z,11.70
2022-12-23T14:33:14.022Z,11.60
2022-12-23T14:35:42.837Z,11.30
2022-12-23T14:38:15.770Z,11.40
2022-12-23T14:40:42.852Z,11.50
2022-12-23T14:43:26.602Z,11.50
2022-12-23T14:45:55.705Z,11.60
2022-12-23T14:48:34.734Z,11.60
2022-12-23T14:51:32.745Z,11.70
2022-12-23T14:53:59.669Z,11.50
2022-12-23T14:56:38.802Z,11.50
2022-12-23T14:59:33.489Z,11.70
2022-12-23T15:02:25.644Z,11.60
2022-12-23T15:04:57.765Z,11.70
2022-12-23T15:07:37.549Z,11.60
2022-12-23T15:10:29.248Z,11.60
2022-12-23T15:12:59.663Z,11.60
2022-12-23T15:15:29.786Z,11.80
2022-12-23T15:18:11.372Z,11.70
2022-12-23T15:20:38.764Z,11.50
2022-12-23T15:23:16.837Z,11.60
2022-12-23T15:25:48.950Z,11.60
2022-12-23T15:28:28.076Z,11.70
2022-12-23T15:30:56.908Z,11.60
2022-12-23T15:36:32.311Z,11.60
2022-12-23T15:39:01.499Z,11.60
2022-12-23T15:41:30.770Z,11.60
2022-12-23T15:44:01.601Z,11.60
2022-12-23T15:46:30.622Z,11.70
2022-12-23T15:49:02.068Z,11.90
2022-12-23T15:54:26.689Z,11.80
2022-12-23T15:56:54.511Z,11.60
2022-12-23T15:59:26.712Z,11.50
2022-12-23T16:01:54.650Z,11.90
2022-12-23T16:04:28.655Z,11.60
2022-12-23T16:07:01.497Z,11.70
2022-12-23T16:09:35.684Z,11.40
2022-12-23T16:12:23.855Z,11.50
2022-12-23T16:14:57.184Z,11.70
2022-12-23T16:17:35.376Z,11.60
2022-12-23T16:20:25.430Z,11.70
2022-12-23T16:23:00.567Z,12.10
2022-12-23T16:25:31.796Z,12.00
2022-12-23T16:28:03.805Z,11.70
2022-12-23T16:30:42.491Z,11.90
2022-12-23T16:33:41.958Z,12.00
2022-12-23T16:36:18.877Z,12.10
2022-12-23T16:38:47.816Z,12.00
2022-12-23T16:41:15.051Z,12.10
2022-12-23T16:43:51.255Z,12.20
2022-12-23T16:46:21.210Z,11.80
2022-12-23T16:48:51.285Z,12.00
2022-12-23T16:51:20.674Z,12.10
2022-12-23T16:53:52.763Z,12.10
2022-12-23T16:56:22.613Z,11.80
2022-12-23T16:58:49.449Z,11.80
2022-12-23T17:01:23.845Z,12.00
2022-12-23T17:03:51.538Z,12.00
2022-12-23T17:06:19.991Z,11.80
2022-12-23T17:08:47.305Z,11.90
2022-12-23T17:11:45.461Z,12.00
2022-12-23T17:14:18.522Z,11.70
2022-12-23T17:16:46.873Z,11.80
2022-12-23T17:19:14.138Z,11.90
2022-12-23T17:21:43.549Z,11.90
2022-12-23T17:24:23.363Z,11.90
2022-12-23T17:26:51.117Z,12.00
2022-12-23T17:29:18.294Z,11.60
2022-12-23T17:31:46.047Z,11.60
2022-12-23T17:34:17.862Z,11.50
2022-12-23T17:36:49.895Z,11.60
2022-12-23T17:39:18.319Z,11.90
2022-12-23T17:41:45.942Z,12.00
2022-12-23T17:44:15.144Z,11.60
2022-12-23T17:46:42.608Z,11.80
2022-12-23T17:49:09.629Z,11.80
2022-12-23T17:51:38.582Z,12.00
2022-12-23T17:54:06.827Z,11.90
2022-12-23T17:56:33.770Z,11.70
2022-12-23T17:59:00.643Z,12.00
2022-12-23T18:01:32.303Z,11.70
2022-12-23T18:04:00.140Z,11.70
2022-12-23T18:06:28.963Z,11.90
2022-12-23T18:08:59.635Z,11.50
2022-12-23T18:11:35.093Z,11.90
2022-12-23T18:14:03.853Z,11.80
2022-12-23T18:16:30.737Z,11.90
2022-12-23T18:18:58.280Z,11.90
2022-12-23T18:21:30.066Z,12.00
2022-12-23T18:24:00.050Z,11.60
2022-12-23T18:26:27.418Z,12.00
2022-12-23T18:28:54.770Z,12.00
2022-12-23T18:31:25.714Z,11.70
2022-12-23T18:33:53.433Z,12.10
2022-12-23T18:36:26.027Z,12.00
2022-12-23T18:38:53.291Z,11.70
2022-12-23T18:41:21.775Z,12.00
2022-12-23T18:43:48.785Z,11.90
2022-12-23T18:46:17.133Z,12.00
2022-12-23T18:48:43.912Z,11.80
2022-12-23T18:51:17.470Z,12.10
2022-12-23T18:53:45.052Z,11.90
2022-12-23T18:56:16.094Z,12.00
2022-12-23T18:58:43.421Z,11.70
2022-12-23T19:01:27.324Z,11.60
2022-12-23T19:03:54.255Z,11.70
2022-12-23T19:06:21.077Z,11.60
2022-12-23T19:08:48.101Z,11.40
2022-12-23T19:11:18.584Z,11.70
2022-12-23T19:13:45.756Z,11.70
2022-12-23T19:16:18.555Z,11.60
2022-12-23T19:18:47.059Z,11.60
2022-12-23T19:21:14.757Z,11.60
2022-12-23T19:23:41.955Z,11.60
2022-12-23T19:26:11.157Z,11.50
2022-12-23T19:28:39.222Z,11.50
2022-12-23T19:31:13.266Z,11.40
2022-12-23T19:33:41.278Z,11.40
2022-12-23T19:36:12.903Z,11.40
2022-12-23T19:38:40.270Z,11.60
2022-12-23T19:41:08.208Z,11.40
2022-12-23T19:43:37.270Z,11.50
2022-12-23T19:46:10.442Z,11.90
2022-12-23T19:48:38.130Z,11.40
2022-12-23T19:51:08.751Z,11.70
2022-12-23T19:53:36.722Z,11.50
2022-12-23T19:56:14.989Z,11.40
2022-12-23T19:58:43.740Z,12.10
2022-12-23T20:01:15.503Z,11.60
2022-12-23T20:03:43.906Z,12.00
2022-12-23T20:06:19.445Z,12.10
2022-12-23T20:08:47.150Z,12.00
2022-12-23T20:11:16.846Z,12.10
2022-12-23T20:13:44.542Z,12.00
2022-12-23T20:16:12.305Z,12.20
2022-12-23T20:18:39.619Z,12.50
2022-12-23T20:21:07.145Z,12.10
2022-12-23T20:23:34.634Z,12.20
2022-12-23T20:26:01.918Z,12.00
2022-12-23T20:28:29.495Z,12.40
2022-12-23T20:31:09.080Z,12.20
2022-12-23T20:33:37.560Z,12.10
2022-12-23T20:36:06.804Z,12.10
2022-12-23T20:38:35.139Z,11.90
2022-12-23T20:41:03.331Z,12.00
2022-12-23T20:43:30.120Z,11.90
2022-12-23T20:46:02.413Z,12.10
2022-12-23T20:48:34.111Z,12.00
2022-12-23T20:51:09.129Z,12.00
2022-12-23T20:53:36.616Z,11.80
2022-12-23T20:56:06.126Z,11.90
2022-12-23T20:58:51.966Z,11.60
2022-12-23T21:01:18.914Z,11.80
2022-12-23T21:03:45.747Z,11.90
2022-12-23T21:06:12.662Z,12.10
2022-12-23T21:08:40.180Z,12.10
2022-12-23T21:11:07.582Z,12.10
2022-12-23T21:13:35.704Z,12.10
2022-12-23T21:16:04.569Z,12.20
2022-12-23T21:18:32.160Z,12.20
2022-12-23T21:21:05.025Z,12.50
2022-12-23T21:23:32.275Z,12.30
2022-12-23T21:26:29.780Z,12.20
2022-12-23T21:28:59.348Z,12.40
2022-12-23T21:31:28.189Z,12.50
2022-12-23T21:33:55.764Z,12.70
2022-12-23T21:36:25.527Z,12.30
2022-12-23T21:38:52.607Z,12.40
2022-12-23T21:41:22.877Z,12.20
2022-12-23T21:43:50.489Z,12.20
2022-12-23T21:46:22.399Z,12.40
2022-12-23T21:48:53.038Z,12.20
2022-12-23T21:51:33.329Z,12.00
2022-12-23T21:54:06.101Z,12.30
2022-12-23T21:56:33.364Z,12.00
2022-12-23T21:59:03.113Z,12.00
2022-12-23T22:01:30.749Z,12.00
2022-12-23T22:03:58.386Z,11.70
2022-12-23T22:06:28.436Z,12.00
2022-12-23T22:08:56.364Z,11.60
2022-12-23T22:11:29.593Z,11.90
2022-12-23T22:13:57.975Z,12.10
2022-12-23T22:16:27.481Z,12.00
2022-12-23T22:18:57.760Z,12.00
2022-12-23T22:21:27.876Z,12.30
2022-12-23T22:23:56.013Z,12.20
2022-12-23T22:26:26.300Z,12.00
2022-12-23T22:28:57.150Z,12.10
2022-12-23T22:31:23.967Z,12.00
2022-12-23T22:33:50.852Z,12.00
2022-12-23T22:36:18.041Z,12.10
2022-12-23T22:38:50.879Z,12.00
2022-12-23T22:41:20.311Z,11.60
2022-12-23T22:43:47.177Z,11.40
2022-12-23T22:46:16.813Z,11.70
2022-12-23T22:48:44.284Z,11.60
2022-12-23T22:51:15.794Z,11.40
2022-12-23T22:53:42.977Z,11.40
2022-12-23T22:56:12.762Z,11.50
2022-12-23T22:58:40.562Z,11.60
2022-12-23T23:01:23.148Z,11.50
2022-12-23T23:03:56.961Z,11.50
2022-12-23T23:06:33.572Z,11.20
2022-12-23T23:09:01.239Z,11.50
2022-12-23T23:11:28.763Z,11.20
2022-12-23T23:13:56.596Z,11.10
2022-12-23T23:16:24.440Z,11.20
2022-12-23T23:18:52.169Z,11.10
2022-12-23T23:21:19.520Z,11.40
2022-12-23T23:23:46.370Z,11.20
2022-12-23T23:26:14.627Z,11.00
2022-12-23T23:28:42.611Z,11.10
2022-12-23T23:31:40.381Z,11.20
2022-12-23T23:33:58.029Z,11.30
2022-12-23T23:36:25.404Z,11.10
2022-12-23T23:38:52.521Z,11.10
2022-12-23T23:41:23.261Z,11.00
2022-12-23T23:43:51.143Z,11.20
2022-12-23T23:46:18.358Z,11.10
2022-12-23T23:48:45.288Z,11.50
2022-12-23T23:51:13.045Z,11.30
2022-12-23T23:53:40.352Z,11.50
2022-12-23T23:56:14.635Z,11.60
2022-12-23T23:58:41.777Z,11.60
